createdAt,value
2019-02-06T00:01:17.560Z,0.20
2019-02-06T00:03:47.351Z,0.20
2019-02-06T00:06:16.770Z,0.20
2019-02-06T00:08:46.198Z,0.20
2019-02-06T00:11:15.934Z,0.20
2019-02-06T00:13:45.491Z,0.20
2019-02-06T00:16:14.948Z,0.20
2019-02-06T00:18:44.399Z,0.20
2019-02-06T00:21:13.850Z,0.20
2019-02-06T00:23:43.262Z,0.30
2019-02-06T00:26:13.113Z,0.30
2019-02-06T00:28:42.566Z,0.20
2019-02-06T00:31:12.177Z,0.30
2019-02-06T00:33:41.563Z,0.30
2019-02-06T00:36:11.031Z,0.30
2019-02-06T00:38:40.535Z,0.30
2019-02-06T00:41:10.318Z,0.30
2019-02-06T00:43:39.737Z,0.30
2019-02-06T00:46:09.193Z,0.30
2019-02-06T00:48:38.574Z,0.40
2019-02-06T00:51:07.948Z,0.30
2019-02-06T00:53:37.414Z,0.30
2019-02-06T00:56:07.214Z,0.30
2019-02-06T00:58:36.649Z,0.30
2019-02-06T01:01:06.462Z,0.40
2019-02-06T01:03:36.083Z,0.30
2019-02-06T01:06:05.653Z,0.40
2019-02-06T01:08:35.191Z,0.30
2019-02-06T01:11:04.798Z,0.30
2019-02-06T01:13:34.255Z,0.30
2019-02-06T01:16:03.790Z,0.30
2019-02-06T01:18:33.195Z,0.40
2019-02-06T01:21:02.650Z,0.30
2019-02-06T01:23:32.148Z,0.30
2019-02-06T01:26:01.985Z,0.40
2019-02-06T01:28:31.387Z,0.40
2019-02-06T01:31:04.830Z,0.40
2019-02-06T01:33:34.230Z,0.40
2019-02-06T01:36:03.838Z,0.40
2019-02-06T01:38:33.266Z,0.40
2019-02-06T01:41:03.049Z,0.40
2019-02-06T01:43:32.516Z,0.40
2019-02-06T01:46:01.956Z,0.40
2019-02-06T01:48:31.347Z,0.40
2019-02-06T01:51:00.710Z,0.40
2019-02-06T01:53:30.267Z,0.40
2019-02-06T01:56:00.138Z,0.40
2019-02-06T01:58:29.588Z,0.40
2019-02-06T02:00:59.039Z,0.40
2019-02-06T02:03:28.531Z,0.40
2019-02-06T02:06:02.484Z,0.40
2019-02-06T02:08:30.313Z,0.40
2019-02-06T02:11:00.270Z,0.40
2019-02-06T02:13:29.750Z,0.40
2019-02-06T02:15:59.329Z,0.40
2019-02-06T02:18:28.747Z,0.40
2019-02-06T02:20:58.181Z,0.40
2019-02-06T02:23:27.693Z,0.40
2019-02-06T02:25:57.506Z,0.40
2019-02-06T02:28:26.904Z,0.40
2019-02-06T02:30:57.549Z,0.50
2019-02-06T02:33:26.955Z,0.50
2019-02-06T02:35:56.326Z,0.40
2019-02-06T02:38:25.702Z,0.50
2019-02-06T02:40:55.454Z,0.40
2019-02-06T02:43:24.914Z,0.50
2019-02-06T02:45:54.407Z,0.50
2019-02-06T02:48:23.858Z,0.50
2019-02-06T02:50:53.326Z,0.50
2019-02-06T02:53:22.661Z,0.50
2019-02-06T02:55:52.450Z,0.50
2019-02-06T02:58:21.830Z,0.50
2019-02-06T03:01:10.155Z,0.50
2019-02-06T03:03:43.523Z,0.50
2019-02-06T03:06:13.277Z,0.50
2019-02-06T03:08:42.667Z,0.50
2019-02-06T03:11:12.452Z,0.60
2019-02-06T03:13:42.012Z,0.50
2019-02-06T03:16:11.514Z,0.50
2019-02-06T03:18:40.882Z,0.50
2019-02-06T03:21:10.718Z,0.60
2019-02-06T03:23:40.075Z,0.60
2019-02-06T03:26:09.555Z,0.60
2019-02-06T03:28:38.924Z,0.60
2019-02-06T03:31:08.376Z,0.60
2019-02-06T03:33:37.917Z,0.60
2019-02-06T03:36:07.998Z,0.60
2019-02-06T03:38:37.370Z,0.60
2019-02-06T03:41:06.854Z,0.60
2019-02-06T03:43:36.198Z,0.60
2019-02-06T03:46:06.060Z,0.60
2019-02-06T03:48:35.547Z,0.60
2019-02-06T03:51:05.794Z,0.60
2019-02-06T03:53:35.134Z,0.60
2019-02-06T03:56:04.630Z,0.60
2019-02-06T03:58:34.342Z,0.70
2019-02-06T04:01:04.078Z,0.60
2019-02-06T04:03:33.479Z,0.60
2019-02-06T04:06:03.308Z,0.70
2019-02-06T04:08:32.927Z,0.70
2019-02-06T04:11:02.402Z,0.70
2019-02-06T04:13:31.850Z,0.70
2019-02-06T04:16:01.234Z,0.70
2019-02-06T04:18:30.678Z,0.70
2019-02-06T04:21:00.490Z,0.70
2019-02-06T04:23:29.827Z,0.70
2019-02-06T04:25:59.218Z,0.70
2019-02-06T04:28:28.666Z,0.70
2019-02-06T04:30:58.122Z,0.70
2019-02-06T04:33:27.575Z,0.70
2019-02-06T04:35:57.647Z,0.80
2019-02-06T04:38:27.194Z,0.80
2019-02-06T04:40:56.535Z,0.80
2019-02-06T04:43:26.099Z,0.80
2019-02-06T04:45:55.663Z,0.80
2019-02-06T04:48:25.016Z,0.80
2019-02-06T04:50:54.714Z,0.80
2019-02-06T04:53:24.178Z,0.80
2019-02-06T04:55:53.641Z,0.80
2019-02-06T04:58:22.972Z,0.80
2019-02-06T05:00:52.459Z,0.90
2019-02-06T05:03:21.922Z,0.80
2019-02-06T05:05:51.688Z,0.80
2019-02-06T05:08:21.143Z,0.80
2019-02-06T05:10:50.538Z,0.80
2019-02-06T05:13:20.044Z,0.80
2019-02-06T05:15:49.471Z,0.90
2019-02-06T05:18:18.975Z,0.90
2019-02-06T05:20:48.887Z,0.80
2019-02-06T05:23:18.386Z,0.80
2019-02-06T05:25:47.814Z,0.90
2019-02-06T05:28:18.128Z,0.90
2019-02-06T05:30:47.784Z,0.80
2019-02-06T05:33:17.558Z,0.80
2019-02-06T05:35:47.286Z,0.90
2019-02-06T05:38:16.695Z,0.80
2019-02-06T05:40:46.129Z,0.80
2019-02-06T05:43:15.612Z,0.80
2019-02-06T05:45:45.081Z,0.80
2019-02-06T05:48:14.596Z,0.80
2019-02-06T05:50:43.993Z,0.90
2019-02-06T05:53:13.438Z,0.90
2019-02-06T05:55:42.796Z,0.90
2019-02-06T05:58:12.258Z,0.90
2019-02-06T06:00:44.785Z,0.80
2019-02-06T06:03:14.205Z,0.90
2019-02-06T06:05:43.597Z,0.90
2019-02-06T06:08:13.136Z,0.90
2019-02-06T06:10:42.578Z,0.80
2019-02-06T06:13:12.044Z,0.80
2019-02-06T06:15:41.499Z,0.80
2019-02-06T06:18:10.949Z,0.80
2019-02-06T06:20:40.432Z,0.80
2019-02-06T06:23:10.241Z,0.80
2019-02-06T06:25:39.705Z,0.80
2019-02-06T06:28:09.134Z,0.80
2019-02-06T06:30:38.600Z,0.80
2019-02-06T06:33:08.079Z,0.80
2019-02-06T06:35:37.574Z,0.80
2019-02-06T06:38:07.003Z,0.80
2019-02-06T06:40:36.329Z,0.80
2019-02-06T06:43:05.842Z,0.90
2019-02-06T06:45:35.283Z,0.90
2019-02-06T06:48:05.050Z,0.90
2019-02-06T06:50:34.495Z,0.90
2019-02-06T06:53:04.033Z,0.90
2019-02-06T06:55:35.236Z,0.90
2019-02-06T06:58:04.338Z,0.90
2019-02-06T07:00:33.741Z,1.00
2019-02-06T07:03:03.089Z,0.90
2019-02-06T07:05:32.573Z,1.00
2019-02-06T07:08:11.223Z,1.00
2019-02-06T07:10:33.544Z,1.00
2019-02-06T07:13:03.001Z,1.00
2019-02-06T07:15:34.278Z,1.00
2019-02-06T07:18:03.722Z,1.00
2019-02-06T07:20:33.128Z,1.00
2019-02-06T07:23:02.961Z,1.10
2019-02-06T07:25:32.481Z,1.10
2019-02-06T07:28:01.835Z,1.10
2019-02-06T07:30:35.953Z,1.20
2019-02-06T07:33:06.135Z,1.20
2019-02-06T07:35:35.571Z,1.10
2019-02-06T07:38:05.005Z,1.20
2019-02-06T07:40:34.531Z,1.20
2019-02-06T07:43:03.983Z,1.20
2019-02-06T07:45:33.468Z,1.20
2019-02-06T07:48:02.870Z,1.20
2019-02-06T07:50:33.474Z,1.30
2019-02-06T07:53:02.914Z,1.30
2019-02-06T07:55:32.410Z,1.40
2019-02-06T07:58:01.862Z,1.40
2019-02-06T08:00:31.394Z,1.40
2019-02-06T08:03:01.225Z,1.40
2019-02-06T08:05:30.709Z,1.40
2019-02-06T08:08:00.201Z,1.50
2019-02-06T08:10:31.692Z,1.50
2019-02-06T08:13:01.363Z,1.50
2019-02-06T08:15:31.004Z,1.60
2019-02-06T08:18:01.105Z,1.60
2019-02-06T08:20:30.621Z,1.60
2019-02-06T08:23:00.174Z,1.60
2019-02-06T08:25:29.606Z,1.70
2019-02-06T08:27:59.003Z,1.70
2019-02-06T08:30:30.714Z,1.70
2019-02-06T08:33:00.262Z,1.70
2019-02-06T08:35:29.701Z,1.70
2019-02-06T08:37:59.153Z,1.80
2019-02-06T08:40:28.926Z,1.80
2019-02-06T08:42:58.410Z,1.90
2019-02-06T08:45:28.080Z,2.00
2019-02-06T08:47:57.629Z,2.00
2019-02-06T08:50:27.420Z,2.00
2019-02-06T08:52:56.885Z,2.10
2019-02-06T08:55:28.187Z,2.10
2019-02-06T08:57:57.638Z,2.20
2019-02-06T09:00:35.632Z,2.30
2019-02-06T09:03:07.178Z,2.40
2019-02-06T09:05:36.693Z,2.40
2019-02-06T09:08:06.705Z,2.60
2019-02-06T09:10:36.254Z,2.70
2019-02-06T09:13:06.724Z,2.50
2019-02-06T09:15:36.379Z,2.60
2019-02-06T09:18:06.723Z,2.50
2019-02-06T09:20:36.198Z,2.50
2019-02-06T09:23:05.840Z,2.50
2019-02-06T09:25:35.243Z,2.50
2019-02-06T09:28:04.689Z,2.50
2019-02-06T09:30:35.012Z,2.50
2019-02-06T09:33:05.365Z,2.50
2019-02-06T09:35:35.003Z,2.50
2019-02-06T09:38:04.710Z,2.50
2019-02-06T09:40:34.119Z,2.50
2019-02-06T09:43:03.582Z,2.50
2019-02-06T09:45:32.923Z,2.60
2019-02-06T09:48:02.430Z,2.70
2019-02-06T09:50:37.490Z,2.80
2019-02-06T09:53:07.113Z,2.80
2019-02-06T09:55:36.870Z,2.80
2019-02-06T09:58:06.793Z,2.90
2019-02-06T10:00:38.113Z,2.80
2019-02-06T10:03:08.102Z,2.80
2019-02-06T10:05:37.942Z,3.00
2019-02-06T10:08:07.607Z,3.00
2019-02-06T10:10:37.085Z,3.10
2019-02-06T10:13:07.701Z,3.00
2019-02-06T10:15:38.721Z,3.20
2019-02-06T10:18:08.768Z,3.20
2019-02-06T10:20:47.218Z,3.20
2019-02-06T10:23:16.791Z,3.30
2019-02-06T10:25:46.213Z,3.20
2019-02-06T10:28:15.604Z,3.10
2019-02-06T10:30:50.165Z,3.20
2019-02-06T10:33:19.608Z,3.20
2019-02-06T10:35:51.959Z,3.30
2019-02-06T10:38:20.523Z,3.40
2019-02-06T10:40:51.089Z,3.50
2019-02-06T10:43:31.580Z,3.60
2019-02-06T10:45:52.217Z,3.70
2019-02-06T10:48:21.631Z,3.60
2019-02-06T10:50:52.863Z,3.90
2019-02-06T10:53:22.313Z,3.90
2019-02-06T10:55:51.790Z,3.80
2019-02-06T10:58:21.509Z,3.70
2019-02-06T11:00:53.880Z,3.80
2019-02-06T11:03:23.385Z,3.70
2019-02-06T11:05:52.866Z,3.60
2019-02-06T11:08:22.207Z,3.60
2019-02-06T11:10:51.640Z,3.80
2019-02-06T11:13:21.174Z,3.80
2019-02-06T11:15:50.604Z,3.90
2019-02-06T11:18:20.142Z,3.80
2019-02-06T11:20:49.621Z,3.90
2019-02-06T11:23:43.779Z,4.00
2019-02-06T11:26:21.599Z,3.90
2019-02-06T11:28:51.130Z,3.90
2019-02-06T11:31:20.656Z,3.90
2019-02-06T11:33:50.197Z,3.90
2019-02-06T11:36:24.152Z,3.90
2019-02-06T11:38:50.906Z,4.00
2019-02-06T11:41:20.361Z,3.90
2019-02-06T11:43:49.811Z,4.10
2019-02-06T11:46:19.410Z,4.10
2019-02-06T11:48:48.772Z,4.10
2019-02-06T11:51:18.222Z,4.20
2019-02-06T11:53:47.599Z,4.40
2019-02-06T11:56:17.373Z,4.50
2019-02-06T11:58:46.847Z,4.20
2019-02-06T12:01:22.794Z,4.30
2019-02-06T12:03:52.710Z,4.40
2019-02-06T12:06:22.176Z,4.40
2019-02-06T12:08:51.800Z,4.30
2019-02-06T12:11:21.318Z,4.60
2019-02-06T12:13:50.675Z,4.40
2019-02-06T12:16:20.233Z,4.40
2019-02-06T12:18:50.122Z,4.30
2019-02-06T12:21:19.721Z,4.50
2019-02-06T12:23:49.248Z,4.50
2019-02-06T12:26:18.674Z,4.60
2019-02-06T12:28:48.095Z,4.60
2019-02-06T12:31:17.463Z,4.40
2019-02-06T12:33:46.962Z,4.40
2019-02-06T12:36:16.511Z,4.30
2019-02-06T12:38:53.012Z,4.30
2019-02-06T12:41:16.986Z,4.40
2019-02-06T12:43:46.424Z,4.50
2019-02-06T12:46:15.853Z,4.60
2019-02-06T12:48:45.262Z,4.60
2019-02-06T12:51:15.071Z,4.80
2019-02-06T12:53:44.555Z,5.00
2019-02-06T12:56:13.877Z,5.00
2019-02-06T12:58:43.578Z,5.40
2019-02-06T13:01:12.990Z,5.40
2019-02-06T13:03:42.392Z,5.40
2019-02-06T13:06:11.839Z,5.40
2019-02-06T13:08:41.600Z,5.40
2019-02-06T13:11:11.072Z,5.60
2019-02-06T13:13:40.503Z,5.50
2019-02-06T13:16:09.966Z,5.70
2019-02-06T13:18:39.306Z,5.90
2019-02-06T13:21:08.823Z,6.00
2019-02-06T13:23:38.559Z,6.30
2019-02-06T13:26:08.074Z,6.30
2019-02-06T13:28:37.582Z,6.20
2019-02-06T13:31:07.046Z,5.80
2019-02-06T13:33:36.494Z,5.50
2019-02-06T13:36:09.814Z,5.50
2019-02-06T13:38:39.243Z,5.60
2019-02-06T13:41:08.691Z,5.70
2019-02-06T13:43:38.182Z,5.30
2019-02-06T13:46:08.351Z,5.20
2019-02-06T13:48:37.821Z,4.90
2019-02-06T13:51:16.426Z,4.60
2019-02-06T13:53:38.723Z,4.60
2019-02-06T13:56:14.059Z,4.40
2019-02-06T13:58:43.512Z,4.40
2019-02-06T14:01:12.922Z,4.20
2019-02-06T14:03:42.299Z,4.10
2019-02-06T14:06:12.140Z,4.10
2019-02-06T14:08:41.666Z,4.00
2019-02-06T14:11:11.340Z,3.90
2019-02-06T14:13:40.801Z,3.90
2019-02-06T14:16:10.460Z,3.90
2019-02-06T14:18:40.054Z,3.80
2019-02-06T14:21:09.817Z,3.80
2019-02-06T14:24:04.080Z,3.70
2019-02-06T14:27:03.823Z,3.80
2019-02-06T14:30:00.450Z,3.80
2019-02-06T14:33:12.925Z,3.80
2019-02-06T14:36:14.695Z,3.80
2019-02-06T14:39:12.086Z,3.80
2019-02-06T14:42:02.375Z,3.80
2019-02-06T14:45:18.932Z,3.80
2019-02-06T14:48:25.198Z,3.70
2019-02-06T14:51:10.309Z,3.70
2019-02-06T14:54:36.398Z,3.70
2019-02-06T14:57:19.057Z,3.70
2019-02-06T15:00:24.727Z,3.60
2019-02-06T15:03:27.698Z,3.60
2019-02-06T15:06:36.818Z,3.50
2019-02-06T15:09:40.131Z,3.50
2019-02-06T15:12:50.630Z,3.50
2019-02-06T15:15:25.894Z,3.40
2019-02-06T15:18:36.270Z,3.30
2019-02-06T15:21:55.602Z,3.30
2019-02-06T15:25:06.066Z,3.30
2019-02-06T15:28:02.522Z,3.30
2019-02-06T15:31:13.829Z,3.30
2019-02-06T15:34:10.402Z,3.30
2019-02-06T15:37:14.675Z,3.20
2019-02-06T15:40:34.353Z,3.10
2019-02-06T15:43:32.290Z,3.10
2019-02-06T15:46:54.887Z,3.10
2019-02-06T15:49:39.276Z,3.10
2019-02-06T15:52:53.033Z,3.00
2019-02-06T15:55:52.105Z,3.00
2019-02-06T15:59:05.903Z,3.00
2019-02-06T16:02:29.164Z,2.90
2019-02-06T16:05:43.882Z,3.00
2019-02-06T16:08:33.752Z,2.90
2019-02-06T16:11:44.060Z,2.90
2019-02-06T16:14:49.618Z,2.90
2019-02-06T16:17:37.341Z,2.80
2019-02-06T16:20:45.091Z,2.70
2019-02-06T16:23:55.275Z,2.60
2019-02-06T16:27:07.296Z,2.60
2019-02-06T16:30:11.680Z,2.50
2019-02-06T16:33:15.022Z,2.40
2019-02-06T16:36:22.735Z,2.30
2019-02-06T16:39:28.426Z,2.20
2019-02-06T16:42:53.787Z,2.10
2019-02-06T16:45:46.758Z,2.10
2019-02-06T16:48:35.243Z,1.90
2019-02-06T16:51:13.305Z,1.90
2019-02-06T16:54:28.651Z,1.90
2019-02-06T16:57:30.624Z,1.80
2019-02-06T17:00:39.427Z,1.80
2019-02-06T17:03:33.742Z,1.70
2019-02-06T17:06:35.934Z,1.70
2019-02-06T17:10:04.550Z,1.60
2019-02-06T17:13:11.903Z,1.60
2019-02-06T17:16:30.005Z,1.60
2019-02-06T17:19:28.949Z,1.60
2019-02-06T17:22:26.202Z,1.60
2019-02-06T17:25:31.109Z,1.60
2019-02-06T17:28:36.716Z,1.60
2019-02-06T17:31:41.759Z,1.50
2019-02-06T17:34:55.433Z,1.50
2019-02-06T17:38:19.342Z,1.50
2019-02-06T17:41:22.430Z,1.50
2019-02-06T17:44:45.705Z,1.40
2019-02-06T17:47:42.126Z,1.30
2019-02-06T17:50:40.448Z,1.30
2019-02-06T17:53:54.489Z,1.20
2019-02-06T17:56:24.188Z,1.20
2019-02-06T17:58:53.950Z,1.10
2019-02-06T18:01:40.066Z,1.10
2019-02-06T18:04:15.078Z,1.10
2019-02-06T18:06:44.675Z,1.20
2019-02-06T18:09:18.973Z,1.20
2019-02-06T18:11:50.885Z,1.20
2019-02-06T18:14:20.671Z,1.20
2019-02-06T18:16:50.367Z,1.10
2019-02-06T18:19:19.758Z,1.10
2019-02-06T18:21:49.374Z,1.10
2019-02-06T18:24:18.953Z,1.10
2019-02-06T18:26:49.034Z,1.00
2019-02-06T18:29:18.555Z,1.00
2019-02-06T18:31:48.021Z,1.00
2019-02-06T18:34:17.586Z,1.00
2019-02-06T18:36:47.309Z,0.90
2019-02-06T18:39:17.540Z,0.90
2019-02-06T18:41:47.458Z,0.80
2019-02-06T18:44:16.888Z,0.80
2019-02-06T18:46:49.500Z,0.80
2019-02-06T18:49:18.948Z,0.80
2019-02-06T18:51:48.348Z,0.70
2019-02-06T18:54:17.915Z,0.70
2019-02-06T18:56:47.605Z,0.70
2019-02-06T18:59:17.094Z,0.60
2019-02-06T19:01:46.782Z,0.60
2019-02-06T19:04:18.846Z,0.60
2019-02-06T19:06:48.660Z,0.60
2019-02-06T19:09:18.765Z,0.50
2019-02-06T19:11:48.267Z,0.50
2019-02-06T19:14:18.087Z,0.50
2019-02-06T19:16:47.481Z,0.40
2019-02-06T19:19:25.206Z,0.40
2019-02-06T19:21:48.214Z,0.40
2019-02-06T19:24:17.945Z,0.40
2019-02-06T19:26:47.596Z,0.40
2019-02-06T19:29:17.108Z,0.30
2019-02-06T19:31:46.979Z,0.30
2019-02-06T19:34:16.538Z,0.20
2019-02-06T19:36:46.091Z,0.20
2019-02-06T19:39:15.662Z,0.20
2019-02-06T19:41:45.286Z,0.20
2019-02-06T19:44:16.272Z,0.20
2019-02-06T19:46:46.226Z,0.10
2019-02-06T19:49:15.655Z,0.10
2019-02-06T19:51:45.342Z,0.00
2019-02-06T19:54:14.841Z,0.00
2019-02-06T19:56:44.269Z,0.00
2019-02-06T19:59:13.902Z,0.00
2019-02-06T20:01:43.753Z,0.00
2019-02-06T20:04:13.509Z,0.00
2019-02-06T20:06:43.036Z,-0.10
2019-02-06T20:09:13.832Z,-0.20
2019-02-06T20:11:43.306Z,-0.20
2019-02-06T20:14:12.748Z,-0.20
2019-02-06T20:16:42.347Z,-0.20
2019-02-06T20:19:11.952Z,-0.30
2019-02-06T20:21:41.716Z,-0.30
2019-02-06T20:24:11.199Z,-0.40
2019-02-06T20:26:40.734Z,-0.40
2019-02-06T20:29:10.251Z,-0.40
2019-02-06T20:31:39.755Z,-0.40
2019-02-06T20:34:09.230Z,-0.40
2019-02-06T20:36:39.269Z,-0.40
2019-02-06T20:39:09.849Z,-0.40
2019-02-06T20:41:39.507Z,-0.40
2019-02-06T20:44:09.234Z,-0.40
2019-02-06T20:46:38.728Z,-0.50
2019-02-06T20:49:09.442Z,-0.50
2019-02-06T20:51:39.007Z,-0.50
2019-02-06T20:54:08.841Z,-0.50
2019-02-06T20:56:38.404Z,-0.50
2019-02-06T20:59:07.920Z,-0.50
2019-02-06T21:01:37.481Z,-0.60
2019-02-06T21:04:07.011Z,-0.60
2019-02-06T21:06:36.542Z,-0.60
2019-02-06T21:09:13.263Z,-0.60
2019-02-06T21:11:42.727Z,-0.70
2019-02-06T21:14:12.566Z,-0.70
2019-02-06T21:16:43.489Z,-0.70
2019-02-06T21:19:13.070Z,-0.80
2019-02-06T21:21:42.629Z,-0.80
2019-02-06T21:24:12.247Z,-0.80
2019-02-06T21:26:44.362Z,-0.80
2019-02-06T21:29:13.207Z,-0.80
2019-02-06T21:31:42.635Z,-0.80
2019-02-06T21:34:12.156Z,-0.80
2019-02-06T21:36:41.717Z,-0.80
2019-02-06T21:39:11.596Z,-0.80
2019-02-06T21:41:41.058Z,-0.80
2019-02-06T21:44:10.646Z,-0.80
2019-02-06T21:46:40.065Z,-0.80
2019-02-06T21:49:09.574Z,-0.80
2019-02-06T21:51:39.124Z,-0.80
2019-02-06T21:54:08.655Z,-0.80
2019-02-06T21:56:38.069Z,-0.80
2019-02-06T21:59:07.786Z,-0.80
2019-02-06T22:01:37.335Z,-0.80
2019-02-06T22:04:06.856Z,-0.80
2019-02-06T22:06:36.306Z,-0.80
2019-02-06T22:09:10.742Z,-0.80
2019-02-06T22:11:40.259Z,-0.80
2019-02-06T22:14:09.858Z,-0.80
2019-02-06T22:16:39.459Z,-0.80
2019-02-06T22:19:08.979Z,-0.80
2019-02-06T22:21:38.820Z,-0.80
2019-02-06T22:24:08.452Z,-0.80
2019-02-06T22:26:37.996Z,-0.80
2019-02-06T22:29:07.466Z,-0.80
2019-02-06T22:31:36.926Z,-0.80
2019-02-06T22:34:06.540Z,-0.80
2019-02-06T22:36:36.379Z,-0.80
2019-02-06T22:39:11.208Z,-0.80
2019-02-06T22:41:40.683Z,-0.70
2019-02-06T22:44:10.195Z,-0.80
2019-02-06T22:46:39.676Z,-0.70
2019-02-06T22:49:09.745Z,-0.80
2019-02-06T22:51:39.197Z,-0.80
2019-02-06T22:54:08.672Z,-0.80
2019-02-06T22:56:41.068Z,-0.80
2019-02-06T22:59:09.417Z,-0.80
2019-02-06T23:01:51.146Z,-0.70
2019-02-06T23:04:20.593Z,-0.70
2019-02-06T23:06:50.005Z,-0.70
2019-02-06T23:09:38.502Z,-0.70
2019-02-06T23:12:08.704Z,-0.70
2019-02-06T23:14:38.177Z,-0.60
2019-02-06T23:17:07.706Z,-0.60
2019-02-06T23:19:37.151Z,-0.60
2019-02-06T23:22:06.688Z,-0.60
2019-02-06T23:24:36.172Z,-0.60
2019-02-06T23:27:05.794Z,-0.60
2019-02-06T23:29:35.454Z,-0.50
2019-02-06T23:32:05.337Z,-0.60
2019-02-06T23:34:34.906Z,-0.60
2019-02-06T23:37:04.570Z,-0.50
2019-02-06T23:39:34.083Z,-0.50
2019-02-06T23:42:03.613Z,-0.50
2019-02-06T23:44:33.039Z,-0.50
2019-02-06T23:47:02.499Z,-0.50
2019-02-06T23:49:32.058Z,-0.50
2019-02-06T23:52:01.546Z,-0.60
2019-02-06T23:54:30.975Z,-0.60
2019-02-06T23:57:00.528Z,-0.60
2019-02-06T23:59:29.976Z,-0.60
